Time;durP1;ratioP1;P1;durP2;ratioP2;P2;SDS_P1;SDS_P2;PMS_P1;PMS_P2;Temp;Humidity;BMP_temperature;BMP_pressure;BME280_temperature;BME280_humidity;BME280_pressure;Samples;Min_cycle;Max_cycle;Signal;HPM_P1;HPM_P2
2022/07/09 00:00:33;;;;;;;6.07;5.50;;;16.90;1.00;;;;;;5031475;28;20215;-53
2022/07/09 00:02:59;;;;;;;6.00;5.23;;;16.90;1.00;;;;;;5032292;28;20184;-54
2022/07/09 00:05:25;;;;;;;6.03;5.43;;;17.00;1.00;;;;;;5031250;28;20618;-54
2022/07/09 00:07:50;;;;;;;10.40;7.20;;;16.80;1.00;;;;;;5028325;28;20301;-54
2022/07/09 00:10:16;;;;;;;5.93;5.37;;;16.70;1.00;;;;;;5028890;28;20193;-54
2022/07/09 00:12:41;;;;;;;9.23;6.10;;;16.70;1.00;;;;;;5032110;28;20290;-55
2022/07/09 00:15:08;;;;;;;6.10;5.53;;;16.60;1.00;;;;;;5043871;28;20185;-57
2022/07/09 00:17:33;;;;;;;5.87;5.20;;;16.60;1.00;;;;;;5026367;28;20181;-55
2022/07/09 00:20:01;;;;;;;5.73;5.33;;;16.70;1.00;;;;;;5027712;28;20474;-54
2022/07/09 00:22:27;;;;;;;7.90;6.53;;;16.50;1.00;;;;;;5032030;28;20303;-57
2022/07/09 00:24:53;;;;;;;8.27;5.80;;;16.50;1.00;;;;;;5028148;28;20535;-54
2022/07/09 00:27:18;;;;;;;6.50;5.90;;;16.40;1.00;;;;;;5032237;28;20185;-56
2022/07/09 00:29:44;;;;;;;6.67;5.83;;;16.40;1.00;;;;;;5029399;28;20189;-55
2022/07/09 00:32:09;;;;;;;6.60;5.90;;;16.30;1.00;;;;;;5031518;28;20221;-55
2022/07/09 00:34:35;;;;;;;9.43;6.90;;;16.20;1.00;;;;;;5029125;28;20224;-53
2022/07/09 00:37:01;;;;;;;7.27;6.57;;;16.30;1.00;;;;;;5030192;28;20219;-55
2022/07/09 00:39:27;;;;;;;6.17;5.67;;;16.30;1.00;;;;;;5030140;28;20228;-56
2022/07/09 00:42:07;;;;;;;8.67;6.70;;;16.30;1.00;;;;;;5031878;28;20905;-54
2022/07/09 00:44:32;;;;;;;7.00;5.53;;;16.30;1.00;;;;;;5027083;28;20181;-56
2022/07/09 00:46:58;;;;;;;8.70;5.93;;;16.20;1.00;;;;;;5029493;28;21214;-54
2022/07/09 00:49:28;;;;;;;6.37;5.60;;;16.20;1.00;;;;;;5027782;28;20185;-54
2022/07/09 00:51:54;;;;;;;7.03;5.93;;;16.10;1.00;;;;;;5029847;28;21078;-56
2022/07/09 00:54:20;;;;;;;8.00;5.77;;;16.10;1.00;;;;;;5027619;28;20435;-56
2022/07/09 00:56:47;;;;;;;7.30;6.40;;;16.00;1.00;;;;;;5030861;28;20435;-53
2022/07/09 00:59:13;;;;;;;6.70;5.77;;;15.90;1.00;;;;;;5026503;28;20502;-55
2022/07/09 01:01:40;;;;;;;6.40;5.80;;;15.90;1.00;;;;;;5030226;28;20443;-55
2022/07/09 01:04:06;;;;;;;6.77;6.17;;;15.90;1.00;;;;;;5029797;28;20443;-54
2022/07/09 01:06:34;;;;;;;6.13;5.53;;;15.80;1.00;;;;;;5027352;28;20441;-55
2022/07/09 01:09:01;;;;;;;8.20;6.30;;;15.90;1.00;;;;;;5029361;28;20446;-56
2022/07/09 01:11:27;;;;;;;7.90;5.93;;;15.90;1.00;;;;;;5029423;28;20848;-56
2022/07/09 01:13:53;;;;;;;7.07;6.03;;;15.90;1.00;;;;;;5026704;28;20460;-53
2022/07/09 01:16:20;;;;;;;6.40;5.80;;;16.00;1.00;;;;;;5029827;28;20512;-56
2022/07/09 01:18:46;;;;;;;9.40;6.03;;;15.90;1.00;;;;;;5030540;28;20470;-56
2022/07/09 01:21:13;;;;;;;7.43;6.73;;;16.00;1.00;;;;;;5030585;28;20440;-55
2022/07/09 01:23:39;;;;;;;8.57;5.93;;;16.00;1.00;;;;;;5032393;28;20503;-54
2022/07/09 01:26:08;;;;;;;6.10;5.60;;;16.00;1.00;;;;;;5024214;28;20875;-55
2022/07/09 01:28:33;;;;;;;7.47;6.60;;;15.90;1.00;;;;;;5027638;28;20189;-55
2022/07/09 01:31:02;;;;;;;7.10;6.60;;;15.90;1.00;;;;;;5023577;28;20540;-55
2022/07/09 01:33:27;;;;;;;6.87;6.17;;;16.00;1.00;;;;;;5022628;28;20634;-53
2022/07/09 01:35:53;;;;;;;13.03;6.43;;;15.90;1.00;;;;;;5030645;28;20489;-54
2022/07/09 01:38:18;;;;;;;7.33;6.20;;;15.90;1.00;;;;;;5025330;28;20299;-55
2022/07/09 01:40:44;;;;;;;7.80;6.57;;;16.10;1.00;;;;;;5029494;28;20212;-55
2022/07/09 01:43:10;;;;;;;7.33;5.63;;;16.10;1.00;;;;;;5026694;28;20188;-55
2022/07/09 01:45:35;;;;;;;7.87;7.07;;;16.10;1.00;;;;;;5028589;28;20443;-55
2022/07/09 01:48:01;;;;;;;8.87;6.43;;;16.20;1.00;;;;;;5027314;28;20188;-56
2022/07/09 01:50:27;;;;;;;7.33;6.63;;;16.10;1.00;;;;;;5029765;28;20188;-54
2022/07/09 01:52:52;;;;;;;7.10;6.40;;;16.10;1.00;;;;;;5028687;28;20200;-55
2022/07/09 01:55:18;;;;;;;6.60;6.00;;;16.20;1.00;;;;;;5030071;28;20189;-55
2022/07/09 01:57:43;;;;;;;10.43;6.13;;;16.20;1.00;;;;;;5042526;28;20208;-56
2022/07/09 02:00:10;;;;;;;8.00;5.53;;;16.20;1.00;;;;;;5025945;28;20220;-54
2022/07/09 02:02:36;;;;;;;6.87;6.27;;;16.10;1.00;;;;;;5028823;28;20184;-54
2022/07/09 02:05:03;;;;;;;10.50;5.93;;;16.00;1.00;;;;;;5029356;28;20508;-55
2022/07/09 02:07:28;;;;;;;5.83;5.33;;;16.00;1.00;;;;;;5028475;28;20244;-55
2022/07/09 02:09:54;;;;;;;8.40;6.20;;;15.90;1.00;;;;;;5024877;28;20459;-55
2022/07/09 02:12:20;;;;;;;5.93;5.43;;;15.80;1.00;;;;;;5028616;28;20194;-56
2022/07/09 02:14:46;;;;;;;6.60;6.10;;;15.70;1.00;;;;;;5029575;28;20627;-54
2022/07/09 02:17:12;;;;;;;6.67;6.07;;;15.80;1.00;;;;;;5033477;28;20196;-53
2022/07/09 02:19:37;;;;;;;6.50;5.90;;;15.70;1.00;;;;;;5043984;28;20581;-54
2022/07/09 02:22:03;;;;;;;5.70;5.20;;;15.70;1.00;;;;;;5028335;28;20197;-55
2022/07/09 02:24:29;;;;;;;6.43;5.93;;;15.70;1.00;;;;;;5025434;28;20228;-53
2022/07/09 02:26:54;;;;;;;6.80;6.20;;;15.60;1.00;;;;;;5027961;28;20195;-56
2022/07/09 02:29:20;;;;;;;6.40;5.17;;;15.60;1.00;;;;;;5029655;28;20200;-56
2022/07/09 02:31:46;;;;;;;6.00;5.40;;;15.60;1.00;;;;;;5027410;28;20243;-55
2022/07/09 02:34:11;;;;;;;6.87;6.17;;;15.50;1.00;;;;;;5029994;28;20220;-55
2022/07/09 02:36:37;;;;;;;6.20;5.60;;;15.50;1.00;;;;;;5024826;28;20603;-55
2022/07/09 02:39:03;;;;;;;5.80;5.30;;;15.50;1.00;;;;;;5029231;28;20330;-54
2022/07/09 02:41:28;;;;;;;9.17;6.47;;;15.50;1.00;;;;;;5029644;28;20557;-53
2022/07/09 02:43:54;;;;;;;6.23;5.63;;;15.50;1.00;;;;;;5049158;28;20176;-53
2022/07/09 02:46:19;;;;;;;7.13;5.97;;;15.60;1.00;;;;;;5028463;28;20204;-56
2022/07/09 02:48:45;;;;;;;5.97;5.47;;;15.70;1.00;;;;;;5028208;28;20664;-53
2022/07/09 02:51:10;;;;;;;5.90;5.40;;;15.70;1.00;;;;;;5028621;28;20284;-53
2022/07/09 02:53:36;;;;;;;7.43;6.70;;;15.70;1.00;;;;;;5025831;28;20193;-56
2022/07/09 02:56:02;;;;;;;6.30;5.70;;;15.80;1.00;;;;;;5027812;28;20185;-53
2022/07/09 02:58:27;;;;;;;5.97;5.43;;;15.70;1.00;;;;;;5028630;28;20219;-54
2022/07/09 03:00:53;;;;;;;7.40;6.57;;;15.60;1.00;;;;;;5036675;28;20208;-55
2022/07/09 03:03:19;;;;;;;5.70;5.20;;;15.70;1.00;;;;;;5037901;28;20201;-53
2022/07/09 03:05:44;;;;;;;6.10;5.50;;;15.60;1.00;;;;;;5043731;28;20192;-54
2022/07/09 03:08:10;;;;;;;6.10;5.50;;;15.50;1.00;;;;;;5037619;28;20197;-55
2022/07/09 03:10:36;;;;;;;6.33;5.73;;;15.50;1.00;;;;;;5032814;28;20630;-53
2022/07/09 03:13:03;;;;;;;6.20;5.70;;;15.50;1.00;;;;;;5030253;28;20299;-55
2022/07/09 03:15:28;;;;;;;7.17;6.47;;;15.40;1.00;;;;;;5033090;28;20188;-53
2022/07/09 03:17:54;;;;;;;6.87;6.27;;;15.50;1.00;;;;;;5032508;28;20923;-55
2022/07/09 03:20:19;;;;;;;7.07;6.37;;;15.50;1.00;;;;;;5030830;28;20334;-54
2022/07/09 03:22:45;;;;;;;8.53;6.17;;;15.50;1.00;;;;;;5033072;28;20189;-54
2022/07/09 03:25:11;;;;;;;8.60;6.67;;;15.40;1.00;;;;;;5028977;28;20197;-56
2022/07/09 03:27:36;;;;;;;6.67;5.43;;;15.40;1.00;;;;;;5032636;28;20188;-54
2022/07/09 03:30:04;;;;;;;6.53;5.93;;;15.40;1.00;;;;;;5031335;28;20550;-52
2022/07/09 03:32:29;;;;;;;6.20;5.70;;;15.40;1.00;;;;;;5032085;28;20196;-55
2022/07/09 03:34:55;;;;;;;6.33;5.83;;;15.40;1.00;;;;;;5031316;28;20447;-54
2022/07/09 03:37:21;;;;;;;5.90;5.37;;;15.40;1.00;;;;;;5029606;28;20277;-55
2022/07/09 03:39:47;;;;;;;5.80;5.20;;;15.50;1.00;;;;;;5030839;28;20227;-55
2022/07/09 03:42:14;;;;;;;8.63;5.20;;;15.50;1.00;;;;;;5033096;28;20414;-54
2022/07/09 03:44:39;;;;;;;5.10;4.70;;;15.70;1.00;;;;;;5031750;28;20820;-55
2022/07/09 03:47:06;;;;;;;5.60;4.63;;;15.90;1.00;;;;;;5040082;28;20418;-55
2022/07/09 03:49:32;;;;;;;4.87;4.47;;;16.00;1.00;;;;;;5029089;28;20294;-54
2022/07/09 03:51:58;;;;;;;4.47;4.07;;;16.10;1.00;;;;;;5030553;28;20448;-55
2022/07/09 03:54:23;;;;;;;5.10;4.70;;;16.20;1.00;;;;;;5030879;28;20534;-55
2022/07/09 03:56:50;;;;;;;6.27;4.50;;;16.10;1.00;;;;;;5029730;28;20212;-53
2022/07/09 03:59:16;;;;;;;6.33;5.57;;;16.10;1.00;;;;;;5028738;28;20223;-55
2022/07/09 04:01:41;;;;;;;5.80;5.30;;;16.10;1.00;;;;;;5028144;28;20944;-54
2022/07/09 04:04:07;;;;;;;5.60;5.20;;;16.20;1.00;;;;;;5047152;28;20484;-56
2022/07/09 04:06:33;;;;;;;6.37;5.77;;;16.20;1.00;;;;;;5032797;28;20700;-57
2022/07/09 04:09:03;;;;;;;6.60;5.90;;;16.30;1.00;;;;;;5032879;28;20192;-54
2022/07/09 04:11:32;;;;;;;5.83;5.33;;;16.30;1.00;;;;;;5030015;28;20185;-56
2022/07/09 04:14:01;;;;;;;7.40;5.83;;;16.40;1.00;;;;;;5031994;28;20443;-53
2022/07/09 04:16:29;;;;;;;7.13;5.20;;;16.50;1.00;;;;;;5031617;28;20923;-52
2022/07/09 04:18:54;;;;;;;6.70;5.10;;;16.70;1.00;;;;;;5031437;28;20426;-55
2022/07/09 04:21:23;;;;;;;6.17;5.10;;;16.90;1.00;;;;;;5035886;28;20429;-52
2022/07/09 04:23:49;;;;;;;7.60;5.63;;;16.90;1.00;;;;;;5029761;28;20188;-55
2022/07/09 04:26:15;;;;;;;6.43;5.30;;;16.90;1.00;;;;;;5031687;28;20418;-54
2022/07/09 04:28:41;;;;;;;6.03;5.63;;;16.90;1.00;;;;;;5029594;28;20493;-56
2022/07/09 04:31:06;;;;;;;5.13;4.63;;;17.00;1.00;;;;;;5031490;28;20243;-55
2022/07/09 04:33:32;;;;;;;5.23;4.83;;;17.10;1.00;;;;;;5028029;28;20272;-54
2022/07/09 04:35:58;;;;;;;8.27;5.70;;;17.30;1.00;;;;;;5028908;28;20273;-54
2022/07/09 04:38:24;;;;;;;5.23;4.73;;;17.40;1.00;;;;;;5028492;28;20188;-53
2022/07/09 04:40:50;;;;;;;6.47;4.77;;;17.40;1.00;;;;;;5030506;28;20227;-56
2022/07/09 04:43:16;;;;;;;6.00;5.50;;;17.40;1.00;;;;;;5031550;28;20444;-55
2022/07/09 04:45:42;;;;;;;6.30;5.37;;;17.50;1.00;;;;;;5030461;28;21022;-53
2022/07/09 04:48:08;;;;;;;5.80;5.30;;;17.60;1.00;;;;;;5029959;28;20203;-52
2022/07/09 04:50:33;;;;;;;5.90;5.30;;;17.70;1.00;;;;;;5029045;28;20197;-53
2022/07/09 04:52:59;;;;;;;5.40;5.00;;;17.80;1.00;;;;;;5030017;28;20189;-55
2022/07/09 04:55:24;;;;;;;8.27;5.17;;;18.00;1.00;;;;;;5030922;28;20208;-55
2022/07/09 04:57:50;;;;;;;6.13;5.50;;;18.20;1.00;;;;;;5025828;28;20192;-52
2022/07/09 05:00:16;;;;;;;6.23;5.73;;;18.40;1.00;;;;;;5028582;28;20681;-55
2022/07/09 05:02:43;;;;;;;8.33;5.30;;;18.40;1.00;;;;;;5028865;28;20661;-54
2022/07/09 05:05:09;;;;;;;5.60;5.10;;;18.40;1.00;;;;;;5027172;28;20847;-54
2022/07/09 05:07:36;;;;;;;7.83;4.60;;;18.40;1.00;;;;;;5024709;28;20448;-54
2022/07/09 05:10:03;;;;;;;6.00;4.60;;;18.50;1.00;;;;;;5027512;28;20923;-56
2022/07/09 05:12:29;;;;;;;4.57;4.17;;;18.80;1.00;;;;;;5030239;28;20421;-54
2022/07/09 05:14:56;;;;;;;5.27;4.87;;;18.80;1.00;;;;;;5030002;28;20512;-53
2022/07/09 05:17:22;;;;;;;5.80;4.27;;;18.70;1.00;;;;;;5029633;28;20429;-55
2022/07/09 05:19:48;;;;;;;5.40;5.00;;;18.80;1.00;;;;;;5029521;28;20475;-54
2022/07/09 05:22:13;;;;;;;5.03;4.53;;;18.90;1.00;;;;;;5033334;28;20933;-54
2022/07/09 05:24:40;;;;;;;5.10;4.70;;;19.10;1.00;;;;;;5029108;28;20284;-54
2022/07/09 05:27:06;;;;;;;5.00;4.50;;;19.00;1.00;;;;;;5028466;28;20197;-55
2022/07/09 05:29:32;;;;;;;4.63;4.20;;;19.00;1.00;;;;;;5023112;28;20451;-53
2022/07/09 05:31:58;;;;;;;10.73;4.63;;;19.10;1.00;;;;;;5021925;28;20489;-54
2022/07/09 05:34:24;;;;;;;4.27;3.80;;;19.20;1.00;;;;;;5024242;28;20280;-56
2022/07/09 05:36:54;;;;;;;5.97;4.07;;;19.40;1.00;;;;;;5028079;28;20475;-54
2022/07/09 05:39:20;;;;;;;5.53;4.00;;;19.50;1.00;;;;;;5028562;28;20471;-57
2022/07/09 05:41:46;;;;;;;5.73;3.83;;;19.70;1.00;;;;;;5028012;28;20497;-54
2022/07/09 05:44:11;;;;;;;5.73;3.50;;;19.50;1.00;;;;;;5030678;28;20610;-55
2022/07/09 05:46:37;;;;;;;4.40;3.60;;;19.50;1.00;;;;;;5026922;28;20185;-56
2022/07/09 05:49:03;;;;;;;4.20;3.80;;;19.50;1.00;;;;;;5030143;28;20184;-57
2022/07/09 05:51:29;;;;;;;5.13;3.60;;;19.30;1.00;;;;;;5028944;28;20188;-55
2022/07/09 05:53:54;;;;;;;3.67;3.27;;;19.30;1.00;;;;;;5043100;28;20504;-53
2022/07/09 05:56:21;;;;;;;4.67;3.43;;;19.40;1.00;;;;;;5039723;28;20454;-53
2022/07/09 05:58:47;;;;;;;4.60;3.43;;;19.60;1.00;;;;;;5030387;28;20662;-55
2022/07/09 06:01:13;;;;;;;5.63;3.90;;;19.70;1.00;;;;;;5027627;28;20455;-55
2022/07/09 06:03:39;;;;;;;5.77;3.83;;;19.70;1.00;;;;;;5037080;28;20203;-55
2022/07/09 06:06:05;;;;;;;6.43;3.27;;;19.90;1.00;;;;;;5026857;28;20418;-55
2022/07/09 06:08:33;;;;;;;4.10;3.50;;;19.80;1.00;;;;;;5028091;28;21100;-54
2022/07/09 06:10:59;;;;;;;3.77;3.40;;;19.70;1.00;;;;;;5026929;28;20425;-54
2022/07/09 06:13:24;;;;;;;4.33;3.93;;;19.70;1.00;;;;;;5028859;28;20434;-54
2022/07/09 06:15:51;;;;;;;7.17;4.20;;;19.70;1.00;;;;;;5029867;28;20439;-54
2022/07/09 06:18:16;;;;;;;5.43;3.70;;;19.50;1.00;;;;;;5028910;28;20197;-57
2022/07/09 06:20:42;;;;;;;5.90;3.70;;;19.60;1.00;;;;;;5024149;28;20475;-54
2022/07/09 06:23:09;;;;;;;4.23;3.83;;;19.90;1.00;;;;;;5029829;28;20216;-55
2022/07/09 06:25:34;;;;;;;5.53;3.87;;;20.00;1.00;;;;;;5027360;28;20184;-55
2022/07/09 06:28:00;;;;;;;5.47;4.20;;;20.20;1.00;;;;;;5027886;28;20421;-53
2022/07/09 06:30:26;;;;;;;5.83;4.03;;;20.20;1.00;;;;;;5027862;28;20228;-55
2022/07/09 06:32:51;;;;;;;9.10;4.63;;;20.10;1.00;;;;;;5029270;28;20208;-54
2022/07/09 06:35:18;;;;;;;7.40;4.37;;;20.00;1.00;;;;;;5026641;28;20653;-54
2022/07/09 06:37:43;;;;;;;4.53;4.13;;;19.90;1.00;;;;;;5037701;28;20200;-53
2022/07/09 06:40:09;;;;;;;5.10;4.30;;;19.80;1.00;;;;;;5027350;28;20975;-55
2022/07/09 06:42:36;;;;;;;6.67;4.20;;;19.70;1.00;;;;;;5023842;28;20192;-54
2022/07/09 06:45:02;;;;;;;5.33;4.00;;;19.80;1.00;;;;;;5032933;28;20185;-54
2022/07/09 06:47:28;;;;;;;6.13;4.80;;;19.80;1.00;;;;;;5032201;28;20424;-55
2022/07/09 06:49:53;;;;;;;8.57;5.13;;;19.90;1.00;;;;;;5033822;28;20272;-54
2022/07/09 06:52:19;;;;;;;6.60;4.47;;;19.80;1.00;;;;;;5032485;28;20192;-53
2022/07/09 06:54:44;;;;;;;6.53;4.80;;;19.80;1.00;;;;;;5032947;28;20673;-55
2022/07/09 06:57:10;;;;;;;5.47;4.67;;;19.70;1.00;;;;;;5032201;28;20188;-55
2022/07/09 06:59:36;;;;;;;5.87;4.90;;;19.60;1.00;;;;;;5033215;28;20200;-54
2022/07/09 07:02:02;;;;;;;5.57;4.70;;;19.50;1.00;;;;;;5032661;28;20246;-53
2022/07/09 07:04:27;;;;;;;6.10;4.60;;;19.60;1.00;;;;;;5031379;28;20422;-55
2022/07/09 07:06:53;;;;;;;5.10;4.70;;;19.60;1.00;;;;;;5032950;28;20192;-56
2022/07/09 07:09:21;;;;;;;5.80;5.20;;;19.50;1.00;;;;;;5031842;28;20195;-56
2022/07/09 07:11:47;;;;;;;5.10;4.60;;;19.70;1.00;;;;;;5042624;28;20195;-56
2022/07/09 07:14:12;;;;;;;9.47;4.43;;;19.90;1.00;;;;;;5033315;28;20691;-55
2022/07/09 07:16:38;;;;;;;5.07;4.50;;;20.00;1.00;;;;;;5030424;28;20509;-55
2022/07/09 07:19:04;;;;;;;5.77;4.30;;;20.00;1.00;;;;;;5033496;28;20231;-56
2022/07/09 07:21:29;;;;;;;5.63;4.40;;;20.00;1.00;;;;;;5031042;28;20188;-57
2022/07/09 07:23:55;;;;;;;5.50;4.23;;;20.10;1.00;;;;;;5034335;28;20188;-57
2022/07/09 07:26:20;;;;;;;7.67;4.03;;;20.10;1.00;;;;;;5027400;28;20551;-54
2022/07/09 07:28:46;;;;;;;4.40;4.10;;;20.20;1.00;;;;;;5032283;28;20212;-54
2022/07/09 07:31:12;;;;;;;4.83;4.30;;;20.20;1.00;;;;;;5032860;28;20652;-55
2022/07/09 07:33:38;;;;;;;6.10;4.27;;;20.30;1.00;;;;;;5028599;28;20184;-55
2022/07/09 07:36:08;;;;;;;5.13;4.40;;;20.40;1.00;;;;;;5032907;28;20255;-55
2022/07/09 07:38:34;;;;;;;5.77;3.97;;;20.60;1.00;;;;;;5036635;28;20509;-55
2022/07/09 07:41:00;;;;;;;6.40;4.00;;;20.80;1.00;;;;;;5031794;28;20530;-55
2022/07/09 07:43:26;;;;;;;4.30;3.83;;;21.00;1.00;;;;;;5032578;28;20453;-56
2022/07/09 07:45:51;;;;;;;5.87;3.80;;;21.00;1.00;;;;;;5032261;28;20991;-53
2022/07/09 07:48:17;;;;;;;7.20;4.30;;;21.10;1.00;;;;;;5032902;28;20646;-55
2022/07/09 07:50:42;;;;;;;5.10;3.77;;;20.60;1.00;;;;;;5030642;28;20223;-56
2022/07/09 07:53:08;;;;;;;4.77;4.20;;;20.40;1.00;;;;;;5029759;28;20185;-54
2022/07/09 07:55:34;;;;;;;5.60;3.70;;;20.10;1.00;;;;;;5030366;28;20251;-55
2022/07/09 07:58:00;;;;;;;6.60;4.20;;;19.90;1.00;;;;;;5042538;28;20680;-55
2022/07/09 08:00:25;;;;;;;6.83;3.83;;;19.80;1.00;;;;;;5032691;28;20943;-56
2022/07/09 08:02:51;;;;;;;3.70;3.30;;;19.80;1.00;;;;;;5027626;28;20189;-56
2022/07/09 08:05:17;;;;;;;4.07;3.63;;;20.00;1.00;;;;;;5028613;28;20188;-54
2022/07/09 08:07:42;;;;;;;5.73;3.60;;;20.50;1.00;;;;;;5028198;28;20182;-56
2022/07/09 08:10:09;;;;;;;3.60;3.30;;;20.90;1.00;;;;;;5031509;28;20246;-58
2022/07/09 08:12:34;;;;;;;3.63;3.10;;;21.10;1.00;;;;;;5031923;28;20192;-57
2022/07/09 08:15:00;;;;;;;4.53;3.57;;;21.60;1.00;;;;;;5033533;28;20760;-56
2022/07/09 08:17:26;;;;;;;5.83;2.93;;;22.00;1.00;;;;;;5031427;28;20216;-55
2022/07/09 08:19:52;;;;;;;7.80;3.30;;;22.10;1.00;;;;;;5040293;28;20235;-56
2022/07/09 08:22:17;;;;;;;3.80;3.03;;;22.10;1.00;;;;;;5040356;28;21251;-55
2022/07/09 08:24:43;;;;;;;4.43;3.07;;;21.60;1.00;;;;;;5031827;28;20192;-54
2022/07/09 08:27:09;;;;;;;4.90;3.30;;;21.30;1.00;;;;;;5027319;28;20223;-56
2022/07/09 08:29:35;;;;;;;4.20;3.60;;;21.40;1.00;;;;;;5035181;28;20184;-56
2022/07/09 08:32:00;;;;;;;3.33;3.07;;;21.60;1.00;;;;;;5039298;28;20308;-55
2022/07/09 08:34:26;;;;;;;4.80;3.00;;;21.60;1.00;;;;;;5030938;28;20208;-54
2022/07/09 08:36:51;;;;;;;6.63;3.00;;;21.60;1.00;;;;;;5031978;28;20193;-55
2022/07/09 08:39:17;;;;;;;5.70;3.60;;;21.80;1.00;;;;;;5031718;28;20692;-56
2022/07/09 08:41:43;;;;;;;4.13;3.20;;;21.90;1.00;;;;;;5046032;28;20699;-53
2022/07/09 08:44:12;;;;;;;6.43;3.20;;;22.00;1.00;;;;;;5039499;28;20193;-55
2022/07/09 08:46:38;;;;;;;6.17;2.70;;;22.10;1.00;;;;;;5031532;28;20788;-54
2022/07/09 08:49:05;;;;;;;3.30;2.83;;;22.10;1.00;;;;;;5032134;28;20418;-55
2022/07/09 08:51:32;;;;;;;4.43;3.03;;;22.20;1.00;;;;;;5051072;28;20427;-55
2022/07/09 08:53:58;;;;;;;3.80;3.07;;;22.00;1.00;;;;;;5041575;28;20825;-56
2022/07/09 08:56:24;;;;;;;3.10;2.50;;;22.00;1.00;;;;;;5031143;28;20497;-56
2022/07/09 08:58:49;;;;;;;6.80;3.27;;;21.80;1.00;;;;;;5034810;28;20974;-56
2022/07/09 09:01:19;;;;;;;4.80;2.80;;;22.10;1.00;;;;;;5032940;28;20185;-56
2022/07/09 09:03:45;;;;;;;4.20;2.57;;;21.90;1.00;;;;;;5044421;28;20191;-57
2022/07/09 09:06:12;;;;;;;4.37;2.73;;;21.90;1.00;;;;;;5028590;28;21027;-55
2022/07/09 09:08:43;;;;;;;6.43;3.73;;;21.60;1.00;;;;;;5028170;28;20429;-58
2022/07/09 09:11:19;;;;;;;4.73;2.77;;;21.50;1.00;;;;;;5040507;28;20954;-55
2022/07/09 09:13:46;;;;;;;4.50;2.70;;;21.20;1.00;;;;;;5030761;28;21222;-55
2022/07/09 09:16:13;;;;;;;4.27;3.03;;;21.00;1.00;;;;;;5029307;28;20436;-55
2022/07/09 09:18:53;;;;;;;8.43;2.37;;;20.80;1.00;;;;;;5028018;28;20429;-55
2022/07/09 09:21:21;;;;;;;4.00;3.57;;;21.00;1.00;;;;;;5028550;28;20430;-56
2022/07/09 09:23:55;;;;;;;5.20;3.00;;;21.30;1.00;;;;;;5028738;28;21131;-55
2022/07/09 09:26:25;;;;;;;2.40;2.20;;;22.00;1.00;;;;;;5028917;28;21135;-55
2022/07/09 09:28:55;;;;;;;3.20;2.37;;;22.20;1.00;;;;;;5026852;28;20810;-55
2022/07/09 09:31:26;;;;;;;2.90;2.10;;;22.30;1.00;;;;;;5028347;28;20488;-55
2022/07/09 09:33:54;;;;;;;2.87;2.67;;;22.30;1.00;;;;;;5031812;28;20435;-55
2022/07/09 09:36:34;;;;;;;2.80;2.60;;;22.40;1.00;;;;;;5030353;28;20435;-54
2022/07/09 09:39:18;;;;;;;2.27;2.13;;;22.40;1.00;;;;;;5029832;28;20447;-56
2022/07/09 09:41:49;;;;;;;4.07;2.70;;;22.30;1.00;;;;;;5030435;28;20398;-55
2022/07/09 09:44:17;;;;;;;2.17;2.07;;;22.30;1.00;;;;;;5028804;28;20414;-54
2022/07/09 09:46:44;;;;;;;4.20;2.60;;;22.10;1.00;;;;;;5028324;28;20425;-53
2022/07/09 09:49:13;;;;;;;3.20;2.70;;;21.80;1.00;;;;;;5038796;28;20426;-55
2022/07/09 09:52:02;;;;;;;8.83;2.87;;;21.50;1.00;;;;;;5029930;28;20446;-55
2022/07/09 09:54:28;;;;;;;3.20;2.67;;;21.50;1.00;;;;;;5029364;28;20449;-54
2022/07/09 09:56:54;;;;;;;4.90;2.70;;;21.60;1.00;;;;;;5030132;28;20907;-54
2022/07/09 09:59:20;;;;;;;4.70;3.13;;;21.60;1.00;;;;;;5031212;28;20463;-54
2022/07/09 10:01:46;;;;;;;5.57;2.67;;;21.60;1.00;;;;;;5029851;28;20406;-54
2022/07/09 10:04:14;;;;;;;4.73;2.50;;;21.50;1.00;;;;;;5029402;28;20430;-53
2022/07/09 10:06:41;;;;;;;3.40;2.80;;;21.60;1.00;;;;;;5029637;28;20515;-54
2022/07/09 10:09:11;;;;;;;3.17;2.87;;;21.70;1.00;;;;;;5029478;28;20932;-54
2022/07/09 10:11:40;;;;;;;4.83;2.97;;;21.80;1.00;;;;;;5028773;28;20542;-55
2022/07/09 10:14:05;;;;;;;4.67;2.93;;;22.00;1.00;;;;;;5030501;28;20439;-55
2022/07/09 10:16:38;;;;;;;3.33;2.60;;;21.80;1.00;;;;;;5029507;28;20421;-55
2022/07/09 10:19:05;;;;;;;3.27;2.73;;;21.70;1.00;;;;;;5029758;28;20183;-55
2022/07/09 10:21:34;;;;;;;3.00;2.47;;;21.80;1.00;;;;;;5028959;28;20448;-54
2022/07/09 10:24:00;;;;;;;3.03;2.83;;;21.80;1.00;;;;;;5027450;28;20440;-56
2022/07/09 10:27:06;;;;;;;4.00;2.90;;;21.80;1.00;;;;;;5029158;28;20779;-55
2022/07/09 10:29:33;;;;;;;3.37;2.90;;;21.90;1.00;;;;;;5023009;28;20232;-56
2022/07/09 10:31:59;;;;;;;4.33;2.60;;;21.80;1.00;;;;;;5028566;28;20463;-55
2022/07/09 10:34:48;;;;;;;3.57;3.27;;;21.50;1.00;;;;;;5028170;28;20529;-56
2022/07/09 10:37:13;;;;;;;3.40;3.10;;;21.30;1.00;;;;;;5029713;28;20184;-53
2022/07/09 10:39:39;;;;;;;2.83;2.63;;;21.20;1.00;;;;;;5036661;28;20449;-57
2022/07/09 10:42:06;;;;;;;3.23;2.63;;;21.10;1.00;;;;;;5041761;28;20513;-55
2022/07/09 10:44:40;;;;;;;4.30;2.50;;;21.00;1.00;;;;;;5029775;28;20193;-54
2022/07/09 10:47:06;;;;;;;3.33;2.43;;;21.00;1.00;;;;;;5028490;28;20416;-55
2022/07/09 10:49:36;;;;;;;5.43;2.73;;;21.10;1.00;;;;;;5029562;28;20421;-55
2022/07/09 10:52:03;;;;;;;3.53;3.23;;;21.50;1.00;;;;;;5025648;28;20483;-56
2022/07/09 10:54:28;;;;;;;3.30;2.93;;;21.80;1.00;;;;;;5040903;28;21005;-53
2022/07/09 10:56:54;;;;;;;2.40;2.20;;;21.90;1.00;;;;;;5029705;28;20405;-55
2022/07/09 10:59:21;;;;;;;3.03;2.30;;;22.00;1.00;;;;;;5028909;28;20306;-54
2022/07/09 11:01:47;;;;;;;3.20;2.13;;;22.20;1.00;;;;;;5029618;28;20880;-54
2022/07/09 11:04:30;;;;;;;2.63;2.43;;;22.40;1.00;;;;;;5027387;28;20430;-55
2022/07/09 11:06:56;;;;;;;2.90;2.17;;;23.00;1.00;;;;;;5028555;28;20447;-54
2022/07/09 11:09:25;;;;;;;2.40;2.20;;;23.30;1.00;;;;;;5030396;28;20526;-55
2022/07/09 11:11:50;;;;;;;3.77;2.33;;;23.20;1.00;;;;;;5029439;28;20491;-54
2022/07/09 11:14:16;;;;;;;3.40;2.60;;;23.20;1.00;;;;;;5028684;28;20533;-55
2022/07/09 11:16:42;;;;;;;4.33;2.80;;;23.20;1.00;;;;;;5029742;28;20613;-55
2022/07/09 11:19:17;;;;;;;3.83;2.53;;;23.20;1.00;;;;;;5027864;28;20653;-55
2022/07/09 11:21:43;;;;;;;3.17;2.20;;;23.10;1.00;;;;;;5029455;28;20199;-55
2022/07/09 11:24:19;;;;;;;5.37;2.77;;;23.30;1.00;;;;;;5027023;28;20791;-55
2022/07/09 11:26:48;;;;;;;2.33;2.13;;;23.50;1.00;;;;;;5027586;28;20458;-56
2022/07/09 11:29:16;;;;;;;2.30;2.10;;;23.30;1.00;;;;;;5029755;28;20402;-54
2022/07/09 11:31:51;;;;;;;2.57;2.23;;;23.40;1.00;;;;;;5031370;28;20501;-56
2022/07/09 11:34:18;;;;;;;2.03;1.83;;;23.70;1.00;;;;;;5030927;28;20607;-54
2022/07/09 11:36:46;;;;;;;5.20;2.60;;;23.50;1.00;;;;;;5029274;28;20462;-56
2022/07/09 11:39:28;;;;;;;2.30;2.10;;;23.80;1.00;;;;;;5030019;28;20451;-54
2022/07/09 11:41:56;;;;;;;3.23;2.33;;;24.10;1.00;;;;;;5040677;28;20414;-55
2022/07/09 11:44:24;;;;;;;3.20;2.33;;;24.10;1.00;;;;;;5036165;28;20426;-54
2022/07/09 11:47:06;;;;;;;3.90;2.60;;;24.30;1.00;;;;;;5037683;28;20760;-53
2022/07/09 11:49:36;;;;;;;3.23;2.30;;;24.20;1.00;;;;;;5039393;28;20420;-55
2022/07/09 11:52:04;;;;;;;3.70;2.37;;;24.40;1.00;;;;;;5038539;28;20564;-55
2022/07/09 11:54:30;;;;;;;2.10;1.90;;;24.30;1.00;;;;;;5031005;28;20512;-55
2022/07/09 11:56:55;;;;;;;2.40;2.00;;;24.50;1.00;;;;;;5051566;28;20437;-56
2022/07/09 11:59:34;;;;;;;2.70;2.50;;;24.10;1.00;;;;;;5031047;28;20455;-55
2022/07/09 12:02:00;;;;;;;3.50;2.17;;;24.00;1.00;;;;;;5032332;28;20184;-56
2022/07/09 12:04:30;;;;;;;3.77;2.30;;;24.30;1.00;;;;;;5035165;28;20937;-54
2022/07/09 12:06:57;;;;;;;2.77;2.40;;;24.00;1.00;;;;;;5033711;28;20465;-55
2022/07/09 12:09:31;;;;;;;2.80;2.40;;;23.50;1.00;;;;;;5034938;28;20443;-55
2022/07/09 12:11:57;;;;;;;2.23;1.60;;;23.40;1.00;;;;;;5043053;28;20452;-56
2022/07/09 12:14:22;;;;;;;1.97;1.70;;;23.60;1.00;;;;;;5050085;28;20405;-54
2022/07/09 12:16:48;;;;;;;7.20;2.27;;;23.70;1.00;;;;;;5036697;28;20901;-55
2022/07/09 12:19:14;;;;;;;2.90;2.37;;;24.10;1.00;;;;;;5032112;28;20185;-55
2022/07/09 12:21:39;;;;;;;2.90;1.80;;;24.40;1.00;;;;;;5024926;28;20189;-55
2022/07/09 12:24:05;;;;;;;1.70;1.60;;;24.10;1.00;;;;;;5032001;28;20215;-53
2022/07/09 12:26:30;;;;;;;2.30;2.03;;;24.00;1.00;;;;;;5029773;28;20627;-55
2022/07/09 12:28:56;;;;;;;2.27;1.83;;;23.70;1.00;;;;;;5031603;28;20185;-56
2022/07/09 12:31:22;;;;;;;2.23;2.00;;;23.30;1.00;;;;;;5029654;28;20231;-55
2022/07/09 12:33:48;;;;;;;1.90;1.80;;;23.40;1.00;;;;;;5027227;28;20418;-57
2022/07/09 12:36:16;;;;;;;2.00;1.90;;;23.40;1.00;;;;;;5029466;28;20197;-54
2022/07/09 12:38:42;;;;;;;3.90;1.90;;;23.40;1.00;;;;;;5034366;28;20188;-54
2022/07/09 12:41:08;;;;;;;2.77;1.73;;;23.50;1.00;;;;;;5026820;28;20468;-55
2022/07/09 12:43:33;;;;;;;1.90;1.70;;;23.70;1.00;;;;;;5021741;28;20767;-57
2022/07/09 12:45:59;;;;;;;3.20;1.93;;;23.70;1.00;;;;;;5022933;28;20189;-55
2022/07/09 12:48:25;;;;;;;2.00;1.87;;;23.70;1.00;;;;;;5027397;28;20647;-55
2022/07/09 12:50:50;;;;;;;2.07;1.90;;;24.20;1.00;;;;;;5027075;28;20193;-54
2022/07/09 12:53:16;;;;;;;2.63;1.70;;;24.30;1.00;;;;;;5031636;28;20196;-59
2022/07/09 12:55:42;;;;;;;2.33;1.77;;;24.10;1.00;;;;;;5022681;28;20192;-60